sensor_id;sensor_type;location;lat;lon;timestamp;P1;durP1;ratioP1;P2;durP2;ratioP2
51828;SDS011;37881;48.024;8.774;2022-10-16T00:00:46;9.73;;;4.68;;
51828;SDS011;37881;48.024;8.774;2022-10-16T00:03:13;9.10;;;4.20;;
51828;SDS011;37881;48.024;8.774;2022-10-16T00:05:41;8.00;;;4.00;;
51828;SDS011;37881;48.024;8.774;2022-10-16T00:08:10;9.77;;;4.50;;
51828;SDS011;37881;48.024;8.774;2022-10-16T00:10:38;10.70;;;4.60;;
51828;SDS011;37881;48.024;8.774;2022-10-16T00:13:05;8.48;;;4.63;;
51828;SDS011;37881;48.024;8.774;2022-10-16T00:15:33;16.83;;;5.95;;
51828;SDS011;37881;48.024;8.774;2022-10-16T00:18:05;10.05;;;5.50;;
51828;SDS011;37881;48.024;8.774;2022-10-16T00:20:35;14.77;;;5.90;;
51828;SDS011;37881;48.024;8.774;2022-10-16T00:23:04;11.93;;;5.30;;
51828;SDS011;37881;48.024;8.774;2022-10-16T00:25:31;10.43;;;5.20;;
51828;SDS011;37881;48.024;8.774;2022-10-16T00:28:02;10.73;;;5.78;;
51828;SDS011;37881;48.024;8.774;2022-10-16T00:30:29;11.32;;;5.32;;
51828;SDS011;37881;48.024;8.774;2022-10-16T00:32:56;10.13;;;5.67;;
51828;SDS011;37881;48.024;8.774;2022-10-16T00:35:23;12.25;;;5.90;;
51828;SDS011;37881;48.024;8.774;2022-10-16T00:37:50;11.10;;;5.65;;
51828;SDS011;37881;48.024;8.774;2022-10-16T00:40:16;12.00;;;6.15;;
51828;SDS011;37881;48.024;8.774;2022-10-16T00:42:43;11.35;;;6.05;;
51828;SDS011;37881;48.024;8.774;2022-10-16T00:45:10;13.80;;;6.43;;
51828;SDS011;37881;48.024;8.774;2022-10-16T00:47:41;10.82;;;5.63;;
51828;SDS011;37881;48.024;8.774;2022-10-16T00:50:22;9.48;;;5.15;;
51828;SDS011;37881;48.024;8.774;2022-10-16T00:52:53;10.98;;;5.30;;
51828;SDS011;37881;48.024;8.774;2022-10-16T00:55:21;13.38;;;6.07;;
51828;SDS011;37881;48.024;8.774;2022-10-16T00:57:49;11.87;;;5.10;;
51828;SDS011;37881;48.024;8.774;2022-10-16T01:00:23;11.77;;;4.85;;
51828;SDS011;37881;48.024;8.774;2022-10-16T01:02:56;10.82;;;5.10;;
51828;SDS011;37881;48.024;8.774;2022-10-16T01:05:33;9.35;;;5.00;;
51828;SDS011;37881;48.024;8.774;2022-10-16T01:08:12;9.10;;;4.65;;
51828;SDS011;37881;48.024;8.774;2022-10-16T01:10:55;9.97;;;4.43;;
51828;SDS011;37881;48.024;8.774;2022-10-16T01:13:33;8.73;;;4.45;;
51828;SDS011;37881;48.024;8.774;2022-10-16T01:18:37;11.15;;;4.90;;
51828;SDS011;37881;48.024;8.774;2022-10-16T01:21:13;9.15;;;4.65;;
51828;SDS011;37881;48.024;8.774;2022-10-16T01:31:36;11.10;;;6.28;;
51828;SDS011;37881;48.024;8.774;2022-10-16T01:34:07;7.35;;;4.43;;
51828;SDS011;37881;48.024;8.774;2022-10-16T01:36:41;8.90;;;4.40;;
51828;SDS011;37881;48.024;8.774;2022-10-16T01:39:10;8.25;;;4.40;;
51828;SDS011;37881;48.024;8.774;2022-10-16T01:41:39;10.68;;;4.90;;
51828;SDS011;37881;48.024;8.774;2022-10-16T01:44:14;7.80;;;4.38;;
51828;SDS011;37881;48.024;8.774;2022-10-16T01:46:46;7.90;;;4.22;;
51828;SDS011;37881;48.024;8.774;2022-10-16T01:49:16;7.07;;;4.50;;
51828;SDS011;37881;48.024;8.774;2022-10-16T01:51:44;9.65;;;4.72;;
51828;SDS011;37881;48.024;8.774;2022-10-16T01:54:15;10.82;;;4.60;;
51828;SDS011;37881;48.024;8.774;2022-10-16T01:56:46;8.55;;;4.25;;
51828;SDS011;37881;48.024;8.774;2022-10-16T01:59:16;9.07;;;4.53;;
51828;SDS011;37881;48.024;8.774;2022-10-16T02:01:50;7.67;;;4.47;;
51828;SDS011;37881;48.024;8.774;2022-10-16T02:04:23;7.53;;;4.50;;
51828;SDS011;37881;48.024;8.774;2022-10-16T02:06:54;7.82;;;4.50;;
51828;SDS011;37881;48.024;8.774;2022-10-16T02:09:21;9.52;;;5.30;;
51828;SDS011;37881;48.024;8.774;2022-10-16T02:11:48;9.75;;;5.68;;
51828;SDS011;37881;48.024;8.774;2022-10-16T02:14:20;9.23;;;5.20;;
51828;SDS011;37881;48.024;8.774;2022-10-16T02:16:48;11.70;;;4.95;;
51828;SDS011;37881;48.024;8.774;2022-10-16T02:19:16;10.32;;;5.10;;
51828;SDS011;37881;48.024;8.774;2022-10-16T02:21:48;8.38;;;4.80;;
51828;SDS011;37881;48.024;8.774;2022-10-16T02:24:26;10.27;;;5.15;;
51828;SDS011;37881;48.024;8.774;2022-10-16T02:29:26;11.65;;;4.97;;
51828;SDS011;37881;48.024;8.774;2022-10-16T02:31:55;10.30;;;4.82;;
51828;SDS011;37881;48.024;8.774;2022-10-16T02:34:27;11.15;;;6.32;;
51828;SDS011;37881;48.024;8.774;2022-10-16T02:36:56;10.45;;;5.07;;
51828;SDS011;37881;48.024;8.774;2022-10-16T02:39:27;12.87;;;8.37;;
51828;SDS011;37881;48.024;8.774;2022-10-16T02:41:55;10.70;;;6.10;;
51828;SDS011;37881;48.024;8.774;2022-10-16T02:44:22;11.20;;;6.13;;
51828;SDS011;37881;48.024;8.774;2022-10-16T02:46:48;11.73;;;6.15;;
51828;SDS011;37881;48.024;8.774;2022-10-16T02:49:15;10.82;;;5.25;;
51828;SDS011;37881;48.024;8.774;2022-10-16T02:51:42;9.27;;;5.00;;
51828;SDS011;37881;48.024;8.774;2022-10-16T02:54:09;10.55;;;5.00;;
51828;SDS011;37881;48.024;8.774;2022-10-16T02:56:36;10.82;;;5.15;;
51828;SDS011;37881;48.024;8.774;2022-10-16T02:59:02;11.98;;;5.35;;
51828;SDS011;37881;48.024;8.774;2022-10-16T03:01:29;10.52;;;5.07;;
51828;SDS011;37881;48.024;8.774;2022-10-16T03:03:56;10.17;;;4.43;;
51828;SDS011;37881;48.024;8.774;2022-10-16T03:06:23;8.30;;;4.40;;
51828;SDS011;37881;48.024;8.774;2022-10-16T03:08:50;8.55;;;4.57;;
51828;SDS011;37881;48.024;8.774;2022-10-16T03:11:16;9.15;;;4.63;;
51828;SDS011;37881;48.024;8.774;2022-10-16T03:13:43;7.70;;;4.60;;
51828;SDS011;37881;48.024;8.774;2022-10-16T03:16:10;9.80;;;4.80;;
51828;SDS011;37881;48.024;8.774;2022-10-16T03:18:37;11.90;;;4.93;;
51828;SDS011;37881;48.024;8.774;2022-10-16T03:21:03;9.75;;;5.60;;
51828;SDS011;37881;48.024;8.774;2022-10-16T03:23:30;9.73;;;5.30;;
51828;SDS011;37881;48.024;8.774;2022-10-16T03:25:57;9.73;;;4.57;;
51828;SDS011;37881;48.024;8.774;2022-10-16T03:28:24;9.13;;;4.50;;
51828;SDS011;37881;48.024;8.774;2022-10-16T03:30:51;6.82;;;4.03;;
51828;SDS011;37881;48.024;8.774;2022-10-16T03:33:17;6.70;;;4.00;;
51828;SDS011;37881;48.024;8.774;2022-10-16T03:35:50;7.78;;;3.95;;
51828;SDS011;37881;48.024;8.774;2022-10-16T03:38:19;10.93;;;3.97;;
51828;SDS011;37881;48.024;8.774;2022-10-16T03:40:46;7.17;;;3.97;;
51828;SDS011;37881;48.024;8.774;2022-10-16T03:43:13;9.73;;;4.55;;
51828;SDS011;37881;48.024;8.774;2022-10-16T03:45:40;8.43;;;4.50;;
51828;SDS011;37881;48.024;8.774;2022-10-16T03:48:07;8.50;;;4.90;;
51828;SDS011;37881;48.024;8.774;2022-10-16T03:50:34;8.25;;;5.13;;
51828;SDS011;37881;48.024;8.774;2022-10-16T03:53:01;9.17;;;5.10;;
51828;SDS011;37881;48.024;8.774;2022-10-16T03:55:27;7.93;;;4.63;;
51828;SDS011;37881;48.024;8.774;2022-10-16T03:57:54;10.25;;;4.60;;
51828;SDS011;37881;48.024;8.774;2022-10-16T04:00:21;8.57;;;4.38;;
51828;SDS011;37881;48.024;8.774;2022-10-16T04:02:48;8.23;;;4.43;;
51828;SDS011;37881;48.024;8.774;2022-10-16T04:05:14;8.30;;;5.10;;
51828;SDS011;37881;48.024;8.774;2022-10-16T04:07:41;10.00;;;5.82;;
51828;SDS011;37881;48.024;8.774;2022-10-16T04:10:08;10.20;;;5.40;;
51828;SDS011;37881;48.024;8.774;2022-10-16T04:12:35;12.48;;;5.50;;
51828;SDS011;37881;48.024;8.774;2022-10-16T04:15:02;10.32;;;5.38;;
51828;SDS011;37881;48.024;8.774;2022-10-16T04:17:29;10.50;;;5.80;;
51828;SDS011;37881;48.024;8.774;2022-10-16T04:19:56;11.75;;;5.80;;
51828;SDS011;37881;48.024;8.774;2022-10-16T04:22:23;10.13;;;5.68;;
51828;SDS011;37881;48.024;8.774;2022-10-16T04:24:49;9.95;;;6.13;;
51828;SDS011;37881;48.024;8.774;2022-10-16T04:27:16;9.15;;;5.40;;
51828;SDS011;37881;48.024;8.774;2022-10-16T04:29:43;20.40;;;11.87;;
51828;SDS011;37881;48.024;8.774;2022-10-16T04:32:10;10.70;;;5.65;;
51828;SDS011;37881;48.024;8.774;2022-10-16T04:34:38;11.02;;;5.28;;
51828;SDS011;37881;48.024;8.774;2022-10-16T04:37:06;9.85;;;5.15;;
51828;SDS011;37881;48.024;8.774;2022-10-16T04:39:33;7.68;;;4.80;;
51828;SDS011;37881;48.024;8.774;2022-10-16T04:41:59;9.37;;;4.87;;
51828;SDS011;37881;48.024;8.774;2022-10-16T04:44:26;10.05;;;5.32;;
51828;SDS011;37881;48.024;8.774;2022-10-16T04:46:53;10.82;;;5.03;;
51828;SDS011;37881;48.024;8.774;2022-10-16T04:49:20;10.95;;;4.80;;
51828;SDS011;37881;48.024;8.774;2022-10-16T04:51:46;9.75;;;4.70;;
51828;SDS011;37881;48.024;8.774;2022-10-16T04:54:13;8.57;;;4.83;;
51828;SDS011;37881;48.024;8.774;2022-10-16T04:56:40;10.32;;;4.53;;
51828;SDS011;37881;48.024;8.774;2022-10-16T04:59:14;10.20;;;5.30;;
51828;SDS011;37881;48.024;8.774;2022-10-16T05:01:41;7.72;;;4.75;;
51828;SDS011;37881;48.024;8.774;2022-10-16T05:04:08;9.30;;;5.13;;
51828;SDS011;37881;48.024;8.774;2022-10-16T05:06:35;8.13;;;4.90;;
51828;SDS011;37881;48.024;8.774;2022-10-16T05:09:03;9.82;;;5.65;;
51828;SDS011;37881;48.024;8.774;2022-10-16T05:11:29;12.07;;;7.18;;
51828;SDS011;37881;48.024;8.774;2022-10-16T05:13:56;9.30;;;5.43;;
51828;SDS011;37881;48.024;8.774;2022-10-16T05:16:23;11.60;;;5.20;;
51828;SDS011;37881;48.024;8.774;2022-10-16T05:18:51;9.97;;;4.60;;
51828;SDS011;37881;48.024;8.774;2022-10-16T05:21:18;10.15;;;4.82;;
51828;SDS011;37881;48.024;8.774;2022-10-16T05:23:46;8.85;;;5.40;;
51828;SDS011;37881;48.024;8.774;2022-10-16T05:26:13;8.73;;;5.50;;
51828;SDS011;37881;48.024;8.774;2022-10-16T05:28:40;9.20;;;5.75;;
51828;SDS011;37881;48.024;8.774;2022-10-16T05:31:07;17.47;;;10.37;;
51828;SDS011;37881;48.024;8.774;2022-10-16T05:33:35;10.43;;;6.63;;
51828;SDS011;37881;48.024;8.774;2022-10-16T05:36:03;10.52;;;6.22;;
51828;SDS011;37881;48.024;8.774;2022-10-16T05:38:30;10.40;;;5.40;;
51828;SDS011;37881;48.024;8.774;2022-10-16T05:40:57;11.60;;;5.80;;
51828;SDS011;37881;48.024;8.774;2022-10-16T05:43:24;11.67;;;5.83;;
51828;SDS011;37881;48.024;8.774;2022-10-16T05:46:05;9.48;;;5.72;;
51828;SDS011;37881;48.024;8.774;2022-10-16T05:48:32;11.70;;;6.00;;
51828;SDS011;37881;48.024;8.774;2022-10-16T05:51:00;10.98;;;6.22;;
51828;SDS011;37881;48.024;8.774;2022-10-16T05:53:33;15.10;;;8.18;;
51828;SDS011;37881;48.024;8.774;2022-10-16T05:56:02;17.40;;;9.17;;
51828;SDS011;37881;48.024;8.774;2022-10-16T05:58:33;14.85;;;8.00;;
51828;SDS011;37881;48.024;8.774;2022-10-16T06:01:03;7.13;;;4.63;;
51828;SDS011;37881;48.024;8.774;2022-10-16T06:03:31;7.78;;;4.32;;
51828;SDS011;37881;48.024;8.774;2022-10-16T06:05:58;7.78;;;4.10;;
51828;SDS011;37881;48.024;8.774;2022-10-16T06:08:25;7.87;;;3.93;;
51828;SDS011;37881;48.024;8.774;2022-10-16T06:11:02;8.63;;;4.20;;
51828;SDS011;37881;48.024;8.774;2022-10-16T06:13:29;8.18;;;3.88;;
51828;SDS011;37881;48.024;8.774;2022-10-16T06:15:57;7.50;;;4.22;;
51828;SDS011;37881;48.024;8.774;2022-10-16T06:18:26;7.82;;;4.10;;
51828;SDS011;37881;48.024;8.774;2022-10-16T06:20:54;7.03;;;4.10;;
51828;SDS011;37881;48.024;8.774;2022-10-16T06:23:21;7.25;;;4.13;;
51828;SDS011;37881;48.024;8.774;2022-10-16T06:25:49;7.45;;;4.18;;
51828;SDS011;37881;48.024;8.774;2022-10-16T06:28:16;8.13;;;4.40;;
51828;SDS011;37881;48.024;8.774;2022-10-16T06:30:42;7.40;;;3.80;;
51828;SDS011;37881;48.024;8.774;2022-10-16T06:33:12;7.17;;;4.17;;
51828;SDS011;37881;48.024;8.774;2022-10-16T06:35:39;7.25;;;4.32;;
51828;SDS011;37881;48.024;8.774;2022-10-16T06:38:06;10.02;;;4.00;;
51828;SDS011;37881;48.024;8.774;2022-10-16T06:40:33;9.93;;;4.20;;
51828;SDS011;37881;48.024;8.774;2022-10-16T06:43:00;7.70;;;4.30;;
51828;SDS011;37881;48.024;8.774;2022-10-16T06:45:26;7.03;;;3.93;;
51828;SDS011;37881;48.024;8.774;2022-10-16T06:47:53;7.03;;;3.90;;
51828;SDS011;37881;48.024;8.774;2022-10-16T06:50:20;6.68;;;3.85;;
51828;SDS011;37881;48.024;8.774;2022-10-16T06:52:47;6.25;;;3.30;;
51828;SDS011;37881;48.024;8.774;2022-10-16T06:55:13;8.45;;;3.40;;
51828;SDS011;37881;48.024;8.774;2022-10-16T06:57:41;27.77;;;16.50;;
51828;SDS011;37881;48.024;8.774;2022-10-16T07:00:08;30.08;;;18.10;;
51828;SDS011;37881;48.024;8.774;2022-10-16T07:02:35;22.90;;;14.32;;
51828;SDS011;37881;48.024;8.774;2022-10-16T07:05:01;37.30;;;19.13;;
51828;SDS011;37881;48.024;8.774;2022-10-16T07:07:29;28.92;;;15.13;;
51828;SDS011;37881;48.024;8.774;2022-10-16T07:09:56;21.47;;;13.00;;
51828;SDS011;37881;48.024;8.774;2022-10-16T07:12:22;17.80;;;9.75;;
51828;SDS011;37881;48.024;8.774;2022-10-16T07:14:49;14.52;;;7.60;;
51828;SDS011;37881;48.024;8.774;2022-10-16T07:17:18;9.65;;;5.30;;
51828;SDS011;37881;48.024;8.774;2022-10-16T07:19:45;11.77;;;5.63;;
51828;SDS011;37881;48.024;8.774;2022-10-16T07:22:12;13.67;;;8.80;;
51828;SDS011;37881;48.024;8.774;2022-10-16T07:24:38;16.10;;;7.00;;
51828;SDS011;37881;48.024;8.774;2022-10-16T07:27:05;10.95;;;5.40;;
51828;SDS011;37881;48.024;8.774;2022-10-16T07:29:32;8.60;;;4.45;;
51828;SDS011;37881;48.024;8.774;2022-10-16T07:31:59;7.95;;;3.70;;
51828;SDS011;37881;48.024;8.774;2022-10-16T07:34:26;8.20;;;4.00;;
51828;SDS011;37881;48.024;8.774;2022-10-16T07:36:53;6.10;;;3.30;;
51828;SDS011;37881;48.024;8.774;2022-10-16T07:39:19;6.90;;;4.00;;
51828;SDS011;37881;48.024;8.774;2022-10-16T07:41:46;7.47;;;4.68;;
51828;SDS011;37881;48.024;8.774;2022-10-16T07:44:15;10.63;;;7.15;;
51828;SDS011;37881;48.024;8.774;2022-10-16T07:46:42;6.80;;;4.43;;
51828;SDS011;37881;48.024;8.774;2022-10-16T07:49:08;7.05;;;4.25;;
51828;SDS011;37881;48.024;8.774;2022-10-16T07:51:35;6.68;;;4.20;;
51828;SDS011;37881;48.024;8.774;2022-10-16T07:54:04;15.18;;;6.43;;
51828;SDS011;37881;48.024;8.774;2022-10-16T07:56:31;26.05;;;12.57;;
51828;SDS011;37881;48.024;8.774;2022-10-16T07:58:59;14.10;;;8.80;;
51828;SDS011;37881;48.024;8.774;2022-10-16T08:01:26;13.90;;;8.68;;
51828;SDS011;37881;48.024;8.774;2022-10-16T08:03:53;13.95;;;7.07;;
51828;SDS011;37881;48.024;8.774;2022-10-16T08:06:20;8.73;;;5.78;;
51828;SDS011;37881;48.024;8.774;2022-10-16T08:08:52;8.00;;;4.40;;
51828;SDS011;37881;48.024;8.774;2022-10-16T08:11:19;7.07;;;4.33;;
51828;SDS011;37881;48.024;8.774;2022-10-16T08:13:45;8.40;;;3.72;;
51828;SDS011;37881;48.024;8.774;2022-10-16T08:16:12;6.53;;;4.00;;
51828;SDS011;37881;48.024;8.774;2022-10-16T08:18:39;6.05;;;3.30;;
51828;SDS011;37881;48.024;8.774;2022-10-16T08:21:07;7.30;;;3.63;;
51828;SDS011;37881;48.024;8.774;2022-10-16T08:23:45;8.73;;;5.03;;
51828;SDS011;37881;48.024;8.774;2022-10-16T08:26:14;7.13;;;4.65;;
51828;SDS011;37881;48.024;8.774;2022-10-16T08:28:41;10.90;;;5.38;;
51828;SDS011;37881;48.024;8.774;2022-10-16T08:31:08;8.38;;;4.60;;
51828;SDS011;37881;48.024;8.774;2022-10-16T08:33:37;8.93;;;4.55;;
51828;SDS011;37881;48.024;8.774;2022-10-16T08:36:05;8.27;;;3.90;;
51828;SDS011;37881;48.024;8.774;2022-10-16T08:38:33;5.88;;;3.85;;
51828;SDS011;37881;48.024;8.774;2022-10-16T08:41:23;7.40;;;3.70;;
51828;SDS011;37881;48.024;8.774;2022-10-16T08:44:06;6.38;;;4.50;;
51828;SDS011;37881;48.024;8.774;2022-10-16T08:49:42;4.87;;;3.07;;
51828;SDS011;37881;48.024;8.774;2022-10-16T08:52:34;4.80;;;2.78;;
51828;SDS011;37881;48.024;8.774;2022-10-16T08:55:05;4.78;;;2.85;;
51828;SDS011;37881;48.024;8.774;2022-10-16T08:57:32;4.70;;;2.83;;
51828;SDS011;37881;48.024;8.774;2022-10-16T09:00:00;7.38;;;3.25;;
51828;SDS011;37881;48.024;8.774;2022-10-16T09:02:38;5.07;;;3.50;;
51828;SDS011;37881;48.024;8.774;2022-10-16T09:13:28;7.00;;;4.50;;
51828;SDS011;37881;48.024;8.774;2022-10-16T09:16:15;9.40;;;6.00;;
51828;SDS011;37881;48.024;8.774;2022-10-16T09:21:50;8.98;;;4.88;;
51828;SDS011;37881;48.024;8.774;2022-10-16T09:24:20;9.52;;;5.85;;
51828;SDS011;37881;48.024;8.774;2022-10-16T09:26:53;8.98;;;6.40;;
51828;SDS011;37881;48.024;8.774;2022-10-16T09:29:20;6.37;;;3.50;;
51828;SDS011;37881;48.024;8.774;2022-10-16T09:31:50;5.85;;;3.10;;
51828;SDS011;37881;48.024;8.774;2022-10-16T09:34:20;5.80;;;3.63;;
51828;SDS011;37881;48.024;8.774;2022-10-16T09:36:56;5.00;;;3.20;;
51828;SDS011;37881;48.024;8.774;2022-10-16T09:39:25;5.25;;;3.10;;
51828;SDS011;37881;48.024;8.774;2022-10-16T09:41:52;5.90;;;3.03;;
51828;SDS011;37881;48.024;8.774;2022-10-16T09:44:29;4.15;;;2.70;;
51828;SDS011;37881;48.024;8.774;2022-10-16T09:47:02;7.93;;;3.00;;
51828;SDS011;37881;48.024;8.774;2022-10-16T09:49:30;4.70;;;2.60;;
51828;SDS011;37881;48.024;8.774;2022-10-16T09:52:03;4.10;;;2.28;;
51828;SDS011;37881;48.024;8.774;2022-10-16T09:54:32;3.80;;;2.30;;
51828;SDS011;37881;48.024;8.774;2022-10-16T09:57:10;4.65;;;2.00;;
51828;SDS011;37881;48.024;8.774;2022-10-16T10:02:36;3.85;;;2.33;;
51828;SDS011;37881;48.024;8.774;2022-10-16T10:05:05;4.07;;;2.60;;
51828;SDS011;37881;48.024;8.774;2022-10-16T10:07:43;7.57;;;2.80;;
51828;SDS011;37881;48.024;8.774;2022-10-16T10:10:28;5.28;;;2.83;;
51828;SDS011;37881;48.024;8.774;2022-10-16T10:12:57;7.05;;;2.53;;
51828;SDS011;37881;48.024;8.774;2022-10-16T10:15:32;4.03;;;2.20;;
51828;SDS011;37881;48.024;8.774;2022-10-16T10:18:02;3.80;;;2.20;;
51828;SDS011;37881;48.024;8.774;2022-10-16T10:23:20;5.00;;;2.20;;
51828;SDS011;37881;48.024;8.774;2022-10-16T10:28:17;5.53;;;3.17;;
51828;SDS011;37881;48.024;8.774;2022-10-16T10:56:24;5.38;;;2.30;;
51828;SDS011;37881;48.024;8.774;2022-10-16T11:07:47;3.55;;;1.48;;
51828;SDS011;37881;48.024;8.774;2022-10-16T11:10:21;2.45;;;1.30;;
51828;SDS011;37881;48.024;8.774;2022-10-16T11:12:52;2.50;;;1.50;;
51828;SDS011;37881;48.024;8.774;2022-10-16T11:15:32;2.93;;;1.60;;
51828;SDS011;37881;48.024;8.774;2022-10-16T11:21:15;3.97;;;1.42;;
51828;SDS011;37881;48.024;8.774;2022-10-16T11:24:49;4.97;;;1.60;;
51828;SDS011;37881;48.024;8.774;2022-10-16T11:26:59;3.55;;;1.45;;
51828;SDS011;37881;48.024;8.774;2022-10-16T11:29:33;4.97;;;1.50;;
51828;SDS011;37881;48.024;8.774;2022-10-16T11:32:10;3.40;;;1.30;;
51828;SDS011;37881;48.024;8.774;2022-10-16T11:34:48;2.63;;;1.48;;
51828;SDS011;37881;48.024;8.774;2022-10-16T11:37:19;3.25;;;1.40;;
51828;SDS011;37881;48.024;8.774;2022-10-16T11:39:54;3.80;;;1.30;;
51828;SDS011;37881;48.024;8.774;2022-10-16T11:42:32;2.50;;;1.20;;
51828;SDS011;37881;48.024;8.774;2022-10-16T11:50:23;2.78;;;1.48;;
51828;SDS011;37881;48.024;8.774;2022-10-16T11:52:57;3.70;;;1.38;;
51828;SDS011;37881;48.024;8.774;2022-10-16T11:55:28;4.13;;;1.40;;
51828;SDS011;37881;48.024;8.774;2022-10-16T11:58:03;2.92;;;1.35;;
51828;SDS011;37881;48.024;8.774;2022-10-16T12:06:12;2.50;;;1.50;;
51828;SDS011;37881;48.024;8.774;2022-10-16T12:08:50;5.97;;;1.63;;
51828;SDS011;37881;48.024;8.774;2022-10-16T12:14:59;3.15;;;1.33;;
51828;SDS011;37881;48.024;8.774;2022-10-16T12:17:26;3.83;;;1.30;;
51828;SDS011;37881;48.024;8.774;2022-10-16T12:22:41;5.10;;;1.40;;
51828;SDS011;37881;48.024;8.774;2022-10-16T12:27:59;3.13;;;1.45;;
51828;SDS011;37881;48.024;8.774;2022-10-16T12:30:43;3.63;;;1.48;;
51828;SDS011;37881;48.024;8.774;2022-10-16T12:33:24;3.50;;;1.50;;
51828;SDS011;37881;48.024;8.774;2022-10-16T12:35:53;3.93;;;1.57;;
51828;SDS011;37881;48.024;8.774;2022-10-16T12:38:25;3.58;;;1.67;;
51828;SDS011;37881;48.024;8.774;2022-10-16T12:41:01;3.72;;;1.60;;
51828;SDS011;37881;48.024;8.774;2022-10-16T12:43:40;3.08;;;1.60;;
51828;SDS011;37881;48.024;8.774;2022-10-16T12:48:39;3.37;;;1.60;;
51828;SDS011;37881;48.024;8.774;2022-10-16T13:13:29;5.20;;;1.70;;
51828;SDS011;37881;48.024;8.774;2022-10-16T13:21:52;3.80;;;1.60;;
51828;SDS011;37881;48.024;8.774;2022-10-16T13:27:41;4.22;;;1.50;;
51828;SDS011;37881;48.024;8.774;2022-10-16T13:30:12;3.33;;;1.63;;
51828;SDS011;37881;48.024;8.774;2022-10-16T13:32:49;2.63;;;1.40;;
51828;SDS011;37881;48.024;8.774;2022-10-16T13:35:24;4.97;;;1.40;;
51828;SDS011;37881;48.024;8.774;2022-10-16T13:40:56;4.65;;;1.30;;
51828;SDS011;37881;48.024;8.774;2022-10-16T13:43:41;2.30;;;1.20;;
51828;SDS011;37881;48.024;8.774;2022-10-16T13:46:13;3.00;;;1.30;;
51828;SDS011;37881;48.024;8.774;2022-10-16T13:48:42;5.13;;;1.20;;
51828;SDS011;37881;48.024;8.774;2022-10-16T13:51:17;3.00;;;1.30;;
51828;SDS011;37881;48.024;8.774;2022-10-16T13:53:45;3.58;;;1.38;;
51828;SDS011;37881;48.024;8.774;2022-10-16T13:56:16;2.50;;;1.30;;
51828;SDS011;37881;48.024;8.774;2022-10-16T13:58:46;3.53;;;1.30;;
51828;SDS011;37881;48.024;8.774;2022-10-16T14:01:24;2.70;;;1.30;;
51828;SDS011;37881;48.024;8.774;2022-10-16T14:04:07;3.30;;;1.38;;
51828;SDS011;37881;48.024;8.774;2022-10-16T14:06:36;2.55;;;1.30;;
51828;SDS011;37881;48.024;8.774;2022-10-16T14:09:08;2.40;;;1.30;;
51828;SDS011;37881;48.024;8.774;2022-10-16T14:11:51;2.50;;;1.20;;
51828;SDS011;37881;48.024;8.774;2022-10-16T14:14:21;2.78;;;1.50;;
51828;SDS011;37881;48.024;8.774;2022-10-16T14:16:49;2.97;;;1.42;;
51828;SDS011;37881;48.024;8.774;2022-10-16T14:19:26;5.13;;;1.48;;
51828;SDS011;37881;48.024;8.774;2022-10-16T14:21:56;3.07;;;1.33;;
51828;SDS011;37881;48.024;8.774;2022-10-16T14:26:56;3.03;;;1.40;;
51828;SDS011;37881;48.024;8.774;2022-10-16T14:29:24;3.88;;;1.50;;
51828;SDS011;37881;48.024;8.774;2022-10-16T14:31:59;2.92;;;1.20;;
51828;SDS011;37881;48.024;8.774;2022-10-16T14:34:28;2.50;;;1.20;;
51828;SDS011;37881;48.024;8.774;2022-10-16T14:36:57;3.25;;;1.40;;
51828;SDS011;37881;48.024;8.774;2022-10-16T14:39:38;4.60;;;1.30;;
51828;SDS011;37881;48.024;8.774;2022-10-16T14:42:13;6.57;;;1.50;;
51828;SDS011;37881;48.024;8.774;2022-10-16T14:44:42;4.35;;;1.52;;
51828;SDS011;37881;48.024;8.774;2022-10-16T14:47:12;2.87;;;1.50;;
51828;SDS011;37881;48.024;8.774;2022-10-16T14:49:42;5.32;;;1.50;;
51828;SDS011;37881;48.024;8.774;2022-10-16T14:52:12;2.50;;;1.30;;
51828;SDS011;37881;48.024;8.774;2022-10-16T14:54:39;3.22;;;1.40;;
51828;SDS011;37881;48.024;8.774;2022-10-16T14:57:15;3.45;;;1.35;;
51828;SDS011;37881;48.024;8.774;2022-10-16T14:59:54;2.70;;;1.30;;
51828;SDS011;37881;48.024;8.774;2022-10-16T15:05:14;4.32;;;1.55;;
51828;SDS011;37881;48.024;8.774;2022-10-16T15:07:41;5.88;;;1.70;;
51828;SDS011;37881;48.024;8.774;2022-10-16T15:10:08;3.13;;;1.42;;
51828;SDS011;37881;48.024;8.774;2022-10-16T15:12:36;5.33;;;1.30;;
51828;SDS011;37881;48.024;8.774;2022-10-16T15:15:15;4.72;;;1.30;;
51828;SDS011;37881;48.024;8.774;2022-10-16T15:17:45;3.45;;;1.50;;
51828;SDS011;37881;48.024;8.774;2022-10-16T15:20:12;5.72;;;1.40;;
51828;SDS011;37881;48.024;8.774;2022-10-16T15:22:39;5.00;;;1.60;;
51828;SDS011;37881;48.024;8.774;2022-10-16T15:25:22;4.10;;;1.30;;
51828;SDS011;37881;48.024;8.774;2022-10-16T15:27:55;5.95;;;2.05;;
51828;SDS011;37881;48.024;8.774;2022-10-16T15:30:22;2.95;;;1.50;;
51828;SDS011;37881;48.024;8.774;2022-10-16T15:32:49;4.70;;;1.40;;
51828;SDS011;37881;48.024;8.774;2022-10-16T15:35:15;4.03;;;1.40;;
51828;SDS011;37881;48.024;8.774;2022-10-16T15:37:42;3.87;;;1.20;;
51828;SDS011;37881;48.024;8.774;2022-10-16T15:40:10;3.33;;;1.30;;
51828;SDS011;37881;48.024;8.774;2022-10-16T15:42:37;3.47;;;1.30;;
51828;SDS011;37881;48.024;8.774;2022-10-16T15:45:04;4.18;;;1.33;;
51828;SDS011;37881;48.024;8.774;2022-10-16T15:47:32;3.65;;;1.40;;
51828;SDS011;37881;48.024;8.774;2022-10-16T15:49:59;3.83;;;1.70;;
51828;SDS011;37881;48.024;8.774;2022-10-16T15:52:26;2.90;;;1.60;;
51828;SDS011;37881;48.024;8.774;2022-10-16T15:54:55;3.60;;;1.50;;
51828;SDS011;37881;48.024;8.774;2022-10-16T15:57:22;5.18;;;1.40;;
51828;SDS011;37881;48.024;8.774;2022-10-16T15:59:50;3.40;;;1.42;;
51828;SDS011;37881;48.024;8.774;2022-10-16T16:02:17;3.97;;;1.60;;
51828;SDS011;37881;48.024;8.774;2022-10-16T16:04:43;5.05;;;1.33;;
51828;SDS011;37881;48.024;8.774;2022-10-16T16:07:10;3.22;;;1.67;;
51828;SDS011;37881;48.024;8.774;2022-10-16T16:09:37;3.55;;;1.63;;
51828;SDS011;37881;48.024;8.774;2022-10-16T16:12:04;5.68;;;1.77;;
51828;SDS011;37881;48.024;8.774;2022-10-16T16:14:31;3.77;;;1.83;;
51828;SDS011;37881;48.024;8.774;2022-10-16T16:16:58;4.85;;;1.90;;
51828;SDS011;37881;48.024;8.774;2022-10-16T16:19:25;4.60;;;1.90;;
51828;SDS011;37881;48.024;8.774;2022-10-16T16:21:52;3.45;;;1.83;;
51828;SDS011;37881;48.024;8.774;2022-10-16T16:24:19;4.10;;;1.73;;
51828;SDS011;37881;48.024;8.774;2022-10-16T16:26:46;3.67;;;2.00;;
51828;SDS011;37881;48.024;8.774;2022-10-16T16:29:13;3.72;;;1.88;;
51828;SDS011;37881;48.024;8.774;2022-10-16T16:31:41;5.10;;;2.38;;
51828;SDS011;37881;48.024;8.774;2022-10-16T16:34:09;5.72;;;2.42;;
51828;SDS011;37881;48.024;8.774;2022-10-16T16:36:36;4.60;;;2.50;;
51828;SDS011;37881;48.024;8.774;2022-10-16T16:39:03;4.07;;;2.20;;
51828;SDS011;37881;48.024;8.774;2022-10-16T16:41:30;5.07;;;3.08;;
51828;SDS011;37881;48.024;8.774;2022-10-16T16:44:04;7.05;;;2.78;;
51828;SDS011;37881;48.024;8.774;2022-10-16T16:46:33;7.47;;;2.85;;
51828;SDS011;37881;48.024;8.774;2022-10-16T16:49:00;5.90;;;2.10;;
51828;SDS011;37881;48.024;8.774;2022-10-16T16:51:28;6.27;;;2.00;;
51828;SDS011;37881;48.024;8.774;2022-10-16T16:53:56;5.43;;;2.15;;
51828;SDS011;37881;48.024;8.774;2022-10-16T16:56:23;6.15;;;3.20;;
51828;SDS011;37881;48.024;8.774;2022-10-16T16:58:51;6.25;;;3.38;;
51828;SDS011;37881;48.024;8.774;2022-10-16T17:01:22;6.55;;;3.40;;
51828;SDS011;37881;48.024;8.774;2022-10-16T17:03:51;4.97;;;2.57;;
51828;SDS011;37881;48.024;8.774;2022-10-16T17:06:19;5.22;;;2.60;;
51828;SDS011;37881;48.024;8.774;2022-10-16T17:08:48;5.22;;;2.42;;
51828;SDS011;37881;48.024;8.774;2022-10-16T17:11:17;5.40;;;2.60;;
51828;SDS011;37881;48.024;8.774;2022-10-16T17:13:46;5.07;;;2.50;;